Time;durP1;ratioP1;P1;durP2;ratioP2;P2;SDS_P1;SDS_P2;PMS_P1;PMS_P2;Temp;Humidity;BMP_temperature;BMP_pressure;BME280_temperature;BME280_humidity;BME280_pressure;Samples;Min_cycle;Max_cycle;Signal;HPM_P1;HPM_P2
2021/12/12 00:00:29;;;;;;;4.55;4.15;;;4.10;99.90;;;;;;1910495;73;21143;-72
2021/12/12 00:03:01;;;;;;;5.90;4.28;;;4.00;99.90;;;;;;1946265;72;21043;-72
2021/12/12 00:05:26;;;;;;;4.92;4.35;;;4.00;99.90;;;;;;1912546;73;21123;-72
2021/12/12 00:07:52;;;;;;;4.78;3.90;;;4.10;99.90;;;;;;1944316;73;21039;-73
2021/12/12 00:10:18;;;;;;;10.88;5.10;;;4.20;99.90;;;;;;1911179;73;21148;-73
2021/12/12 00:12:44;;;;;;;5.35;4.05;;;4.30;99.90;;;;;;1921787;72;21139;-73
2021/12/12 00:15:11;;;;;;;5.95;3.85;;;4.20;99.90;;;;;;1921842;72;21066;-72
2021/12/12 00:17:38;;;;;;;5.35;4.30;;;4.20;99.90;;;;;;1926136;72;21040;-72
2021/12/12 00:20:04;;;;;;;5.15;4.10;;;4.20;99.90;;;;;;1914702;72;21137;-72
2021/12/12 00:22:32;;;;;;;5.22;3.75;;;4.10;99.90;;;;;;1930338;72;21012;-72
2021/12/12 00:24:58;;;;;;;6.22;3.72;;;4.10;99.90;;;;;;1911744;73;21051;-72
2021/12/12 00:27:24;;;;;;;4.75;4.10;;;4.10;99.90;;;;;;1920393;72;21075;-73
2021/12/12 00:29:50;;;;;;;5.95;3.90;;;4.00;99.90;;;;;;1927460;73;21066;-72
2021/12/12 00:32:16;;;;;;;5.92;3.42;;;4.00;99.90;;;;;;1916915;73;21183;-73
2021/12/12 00:34:42;;;;;;;3.37;2.90;;;4.00;99.90;;;;;;1927465;72;21043;-73
2021/12/12 00:37:09;;;;;;;3.12;2.77;;;4.00;99.90;;;;;;1920700;73;21109;-73
2021/12/12 00:39:35;;;;;;;4.65;3.08;;;4.10;99.90;;;;;;1935311;73;21156;-73
2021/12/12 00:42:01;;;;;;;3.42;3.12;;;4.10;99.90;;;;;;1924366;72;21447;-73
2021/12/12 00:44:27;;;;;;;3.45;2.95;;;4.10;99.90;;;;;;1929120;72;21507;-73
2021/12/12 00:46:53;;;;;;;3.08;2.77;;;4.20;99.90;;;;;;1948721;73;21505;-73
2021/12/12 00:49:19;;;;;;;4.15;2.70;;;4.20;99.90;;;;;;1942530;72;21180;-72
2021/12/12 00:51:45;;;;;;;3.25;2.65;;;4.10;99.90;;;;;;1937174;72;21043;-72
2021/12/12 00:54:11;;;;;;;3.02;2.72;;;4.10;99.90;;;;;;1929344;72;21135;-72
2021/12/12 00:56:38;;;;;;;3.27;2.95;;;4.10;99.90;;;;;;1927960;72;21035;-73
2021/12/12 00:59:04;;;;;;;3.47;3.17;;;4.10;99.90;;;;;;1927262;72;21055;-73
2021/12/12 01:01:30;;;;;;;3.50;2.98;;;4.10;99.90;;;;;;1921195;73;21030;-73
2021/12/12 01:03:56;;;;;;;4.40;3.02;;;4.20;99.90;;;;;;1931486;72;21091;-73
2021/12/12 01:06:22;;;;;;;3.60;2.92;;;4.20;99.90;;;;;;1924357;73;21093;-73
2021/12/12 01:08:49;;;;;;;4.35;3.00;;;4.30;99.90;;;;;;1931189;73;21143;-72
2021/12/12 01:11:15;;;;;;;3.40;3.08;;;4.30;99.90;;;;;;1922063;72;21136;-72
2021/12/12 01:13:41;;;;;;;3.00;2.70;;;4.20;99.90;;;;;;1920511;72;21062;-72
2021/12/12 01:16:09;;;;;;;5.72;2.90;;;4.20;99.90;;;;;;1920589;73;21058;-73
2021/12/12 01:18:36;;;;;;;4.50;2.83;;;4.20;99.90;;;;;;1918744;73;21064;-73
2021/12/12 01:21:02;;;;;;;5.80;3.20;;;4.10;99.90;;;;;;1946647;73;21063;-73
2021/12/12 01:23:28;;;;;;;3.80;3.40;;;4.10;99.90;;;;;;1932481;73;21459;-72
2021/12/12 01:25:54;;;;;;;6.90;3.50;;;4.20;99.90;;;;;;1945424;73;21701;-73
2021/12/12 01:28:20;;;;;;;4.08;3.30;;;4.20;99.90;;;;;;1918415;72;21555;-72
2021/12/12 01:30:46;;;;;;;3.65;2.67;;;4.10;99.90;;;;;;1922135;73;21188;-72
2021/12/12 01:33:21;;;;;;;7.25;3.70;;;3.90;99.90;;;;;;1912184;73;21062;-73
2021/12/12 01:35:40;;;;;;;5.53;3.67;;;4.00;99.90;;;;;;1931812;73;21466;-74
2021/12/12 01:40:50;;;;;;;6.08;3.70;;;4.00;99.90;;;;;;1909689;73;21451;-73
2021/12/12 01:43:19;;;;;;;6.55;4.50;;;4.00;99.90;;;;;;1919958;72;21647;-73
2021/12/12 01:45:44;;;;;;;5.00;3.37;;;4.10;99.90;;;;;;1923439;73;21139;-72
2021/12/12 01:48:11;;;;;;;5.60;3.47;;;4.10;99.90;;;;;;1917854;73;21082;-72
2021/12/12 01:50:37;;;;;;;6.10;4.10;;;4.10;99.90;;;;;;1916168;72;21212;-72
2021/12/12 01:53:03;;;;;;;5.28;3.77;;;4.10;99.90;;;;;;1941593;72;21514;-72
2021/12/12 01:55:29;;;;;;;6.20;3.87;;;4.20;99.90;;;;;;1917117;73;21465;-72
2021/12/12 01:57:55;;;;;;;7.80;4.53;;;4.10;99.90;;;;;;1951137;73;21427;-72
2021/12/12 02:00:21;;;;;;;6.35;3.87;;;4.10;99.90;;;;;;1915863;72;21124;-72
2021/12/12 02:02:47;;;;;;;4.78;3.80;;;4.10;99.90;;;;;;1913717;73;21053;-71
2021/12/12 02:05:13;;;;;;;3.67;3.37;;;4.10;99.90;;;;;;1924302;73;21042;-72
2021/12/12 02:07:39;;;;;;;5.60;3.45;;;4.10;99.90;;;;;;1926283;73;21066;-73
2021/12/12 02:10:06;;;;;;;6.67;4.22;;;4.20;99.90;;;;;;1913873;72;21062;-74
2021/12/12 02:12:32;;;;;;;4.03;3.62;;;4.20;99.90;;;;;;1915016;73;22613;-73
2021/12/12 02:14:58;;;;;;;4.42;3.22;;;4.20;99.90;;;;;;1915464;72;21192;-73
2021/12/12 02:17:29;;;;;;;8.10;3.77;;;4.20;99.90;;;;;;1915474;72;21486;-73
2021/12/12 02:20:15;;;;;;;7.47;4.05;;;4.10;99.90;;;;;;1925689;73;21199;-73
2021/12/12 02:36:08;;;;;;;4.47;3.35;;;4.10;99.90;;;;;;1925279;73;21115;-72
2021/12/12 02:38:34;;;;;;;8.85;3.90;;;4.10;99.90;;;;;;1925809;72;21140;-73
2021/12/12 02:41:00;;;;;;;7.50;3.55;;;4.00;99.90;;;;;;1917548;73;21066;-71
2021/12/12 02:43:26;;;;;;;7.22;3.92;;;3.90;99.90;;;;;;1935174;73;21065;-71
2021/12/12 02:45:55;;;;;;;7.25;4.10;;;3.90;99.90;;;;;;1915205;73;21066;-72
2021/12/12 02:48:21;;;;;;;4.87;3.92;;;4.00;99.90;;;;;;1919856;72;21180;-71
2021/12/12 02:50:47;;;;;;;6.08;3.62;;;3.90;99.90;;;;;;1937814;72;21066;-71
2021/12/12 02:53:13;;;;;;;6.40;3.20;;;4.00;99.90;;;;;;1928290;72;21051;-72
2021/12/12 02:55:39;;;;;;;5.40;3.55;;;3.90;99.90;;;;;;1914271;72;21063;-71
2021/12/12 02:58:05;;;;;;;6.42;3.67;;;3.90;99.90;;;;;;1924844;72;21020;-72
2021/12/12 03:00:31;;;;;;;8.15;3.80;;;3.90;99.90;;;;;;1913242;73;21160;-72
2021/12/12 03:02:59;;;;;;;6.37;3.95;;;4.00;99.90;;;;;;1922894;73;21141;-73
2021/12/12 03:05:25;;;;;;;7.60;3.87;;;4.00;99.90;;;;;;1936371;72;21116;-72
2021/12/12 03:07:51;;;;;;;5.97;3.50;;;4.00;99.90;;;;;;1923354;72;21070;-72
2021/12/12 03:10:18;;;;;;;7.30;3.27;;;4.00;99.90;;;;;;1933575;72;21231;-72
2021/12/12 03:12:44;;;;;;;5.30;3.65;;;4.10;99.90;;;;;;1923032;73;21148;-72
2021/12/12 03:15:10;;;;;;;3.95;3.17;;;4.00;99.90;;;;;;1931063;73;21043;-72
2021/12/12 03:17:36;;;;;;;5.70;3.08;;;4.00;99.90;;;;;;1932212;72;21066;-72
2021/12/12 03:20:02;;;;;;;6.17;3.08;;;4.20;99.90;;;;;;1935161;72;21082;-72
2021/12/12 03:22:28;;;;;;;4.33;3.12;;;4.10;99.90;;;;;;1926794;72;21074;-71
2021/12/12 03:24:54;;;;;;;4.40;3.05;;;4.10;99.90;;;;;;1926808;73;21051;-72
2021/12/12 03:27:20;;;;;;;6.08;2.40;;;4.10;99.90;;;;;;1915260;73;21158;-72
2021/12/12 03:29:47;;;;;;;1.87;1.70;;;4.10;99.90;;;;;;1926034;72;21440;-73
2021/12/12 03:32:13;;;;;;;4.25;2.40;;;4.10;99.90;;;;;;1913726;73;21152;-72
2021/12/12 03:34:39;;;;;;;3.17;2.50;;;4.10;99.90;;;;;;1926815;73;21189;-72
2021/12/12 03:37:05;;;;;;;3.33;2.45;;;4.10;99.90;;;;;;1921360;72;21131;-72
2021/12/12 03:39:31;;;;;;;3.45;1.87;;;4.20;99.90;;;;;;1915117;73;21152;-73
2021/12/12 03:41:57;;;;;;;4.10;2.22;;;4.20;99.90;;;;;;1923343;72;21094;-72
2021/12/12 03:44:23;;;;;;;7.05;2.50;;;4.10;99.90;;;;;;1913434;72;21178;-72
2021/12/12 03:46:49;;;;;;;2.90;2.20;;;4.10;99.90;;;;;;1936059;73;21148;-71
2021/12/12 03:49:15;;;;;;;2.70;2.20;;;4.20;99.90;;;;;;1920265;72;21124;-71
2021/12/12 03:51:42;;;;;;;2.95;1.82;;;4.20;99.90;;;;;;1934026;72;21209;-72
2021/12/12 03:54:08;;;;;;;4.05;2.42;;;4.10;99.90;;;;;;1915566;73;21062;-71
2021/12/12 03:56:34;;;;;;;3.47;2.33;;;4.00;99.90;;;;;;1913659;73;21081;-71
2021/12/12 03:59:00;;;;;;;4.00;2.55;;;4.00;99.90;;;;;;1931082;73;21095;-72
2021/12/12 04:01:26;;;;;;;6.95;2.72;;;4.00;99.90;;;;;;1947165;73;21478;-71
2021/12/12 04:03:52;;;;;;;3.62;2.87;;;4.00;99.90;;;;;;1914499;72;21544;-71
2021/12/12 04:06:18;;;;;;;6.35;3.05;;;4.00;99.90;;;;;;1916768;73;21450;-71
2021/12/12 04:08:44;;;;;;;4.37;2.60;;;4.10;99.90;;;;;;1918526;73;21399;-73
2021/12/12 04:11:11;;;;;;;7.45;2.65;;;4.00;99.90;;;;;;1926344;72;21121;-73
2021/12/12 04:13:37;;;;;;;6.33;2.90;;;4.00;99.90;;;;;;1933936;73;21114;-73
2021/12/12 04:16:03;;;;;;;5.08;2.60;;;4.00;99.90;;;;;;1927914;72;21219;-73
2021/12/12 04:18:29;;;;;;;3.55;2.40;;;4.00;99.90;;;;;;1929634;73;21176;-73
2021/12/12 04:20:55;;;;;;;7.42;2.40;;;3.90;99.90;;;;;;1925160;74;21043;-72
2021/12/12 04:23:21;;;;;;;4.03;2.75;;;3.90;99.90;;;;;;1927807;74;21078;-72
2021/12/12 04:25:47;;;;;;;3.30;2.77;;;3.90;99.90;;;;;;1929500;74;21469;-74
2021/12/12 04:28:13;;;;;;;4.33;2.50;;;3.80;99.90;;;;;;1929986;73;21559;-73
2021/12/12 04:30:40;;;;;;;3.17;2.58;;;3.80;99.90;;;;;;1938525;73;21564;-73
2021/12/12 04:33:06;;;;;;;4.33;2.40;;;3.80;99.90;;;;;;1921765;74;21073;-73
2021/12/12 04:35:32;;;;;;;4.08;2.40;;;3.70;99.90;;;;;;1930999;74;21065;-73
2021/12/12 04:37:58;;;;;;;6.75;2.92;;;3.80;99.90;;;;;;1928911;73;21046;-73
2021/12/12 04:40:24;;;;;;;9.98;2.83;;;3.70;99.90;;;;;;1936937;74;21076;-74
2021/12/12 04:42:51;;;;;;;6.45;2.47;;;3.70;99.90;;;;;;1932573;74;21070;-73
2021/12/12 04:45:18;;;;;;;4.78;2.72;;;3.40;99.90;;;;;;1928263;72;21513;-72
2021/12/12 04:50:28;;;;;;;4.20;2.65;;;3.30;99.90;;;;;;1941976;74;21052;-71
2021/12/12 04:52:54;;;;;;;3.08;2.58;;;3.20;99.90;;;;;;1927534;72;21043;-73
2021/12/12 04:55:21;;;;;;;3.10;2.37;;;3.00;99.90;;;;;;1918436;74;21074;-73
2021/12/12 04:57:47;;;;;;;3.10;2.47;;;3.00;99.90;;;;;;1928882;74;21168;-73
2021/12/12 05:00:13;;;;;;;9.50;3.10;;;2.90;99.90;;;;;;1937469;74;21542;-71
2021/12/12 05:02:39;;;;;;;7.00;3.33;;;3.00;99.90;;;;;;1937925;74;21525;-73
2021/12/12 05:05:05;;;;;;;4.78;3.05;;;2.90;99.90;;;;;;1920776;74;21430;-72
2021/12/12 05:07:31;;;;;;;3.75;2.92;;;2.80;99.90;;;;;;1918093;74;21550;-73
2021/12/12 05:09:57;;;;;;;4.65;3.00;;;2.80;99.90;;;;;;1923987;74;21107;-73
2021/12/12 05:12:23;;;;;;;5.05;2.80;;;2.70;99.90;;;;;;1930897;74;21143;-73
2021/12/12 05:14:49;;;;;;;3.65;2.60;;;2.60;99.90;;;;;;1929433;74;21048;-73
2021/12/12 05:17:16;;;;;;;4.00;2.83;;;2.40;99.90;;;;;;1930078;74;21113;-72
2021/12/12 05:19:42;;;;;;;3.90;2.72;;;2.30;99.90;;;;;;1921855;73;21068;-71
2021/12/12 05:22:09;;;;;;;4.33;2.72;;;2.30;99.90;;;;;;1926686;72;21043;-71
2021/12/12 05:24:36;;;;;;;9.00;2.62;;;2.20;99.90;;;;;;1928621;74;21230;-72
2021/12/12 05:27:02;;;;;;;6.80;3.08;;;2.10;99.90;;;;;;1933814;73;21046;-72
2021/12/12 05:29:28;;;;;;;6.05;2.85;;;2.10;99.90;;;;;;1928652;74;21017;-71
2021/12/12 05:31:54;;;;;;;4.58;2.62;;;1.90;99.90;;;;;;1916913;74;21124;-72
2021/12/12 05:34:20;;;;;;;6.58;2.75;;;1.80;99.90;;;;;;1926655;72;21174;-74
2021/12/12 05:36:46;;;;;;;4.55;2.60;;;1.90;99.90;;;;;;1933723;72;21121;-72
2021/12/12 05:39:12;;;;;;;5.00;2.98;;;1.70;99.90;;;;;;1927952;73;21117;-71
2021/12/12 05:41:38;;;;;;;5.17;3.20;;;1.70;99.90;;;;;;1929081;73;21039;-73
2021/12/12 05:44:05;;;;;;;6.03;3.12;;;1.70;99.90;;;;;;1928245;74;21042;-72
2021/12/12 05:46:31;;;;;;;6.40;2.87;;;1.60;99.90;;;;;;1919410;72;21587;-70
2021/12/12 05:48:59;;;;;;;7.20;3.22;;;1.60;99.90;;;;;;1927670;74;21082;-73
2021/12/12 05:51:25;;;;;;;6.55;3.27;;;1.70;99.90;;;;;;1925719;74;21116;-72
2021/12/12 05:53:51;;;;;;;3.67;2.87;;;1.60;99.90;;;;;;1937749;73;21561;-72
2021/12/12 05:56:17;;;;;;;3.58;2.85;;;1.60;99.90;;;;;;1920756;74;21590;-72
2021/12/12 05:58:43;;;;;;;6.22;3.47;;;1.50;99.90;;;;;;1928051;74;21175;-73
2021/12/12 06:01:09;;;;;;;4.95;3.40;;;1.40;99.90;;;;;;1933490;74;21058;-73
2021/12/12 06:03:37;;;;;;;6.17;3.75;;;1.30;99.90;;;;;;1922026;74;21147;-71
2021/12/12 06:06:03;;;;;;;5.70;3.98;;;1.30;99.90;;;;;;1926822;74;21043;-72
2021/12/12 06:08:29;;;;;;;7.00;4.20;;;1.40;99.90;;;;;;1919191;74;21077;-73
2021/12/12 06:10:55;;;;;;;5.08;3.75;;;1.30;99.90;;;;;;1919226;74;21145;-74
2021/12/12 06:13:21;;;;;;;7.35;3.70;;;1.20;99.90;;;;;;1919411;74;21124;-74
2021/12/12 06:15:50;;;;;;;6.05;4.15;;;1.30;99.90;;;;;;1923075;74;21281;-72
2021/12/12 06:18:15;;;;;;;8.30;4.05;;;1.30;99.90;;;;;;1928829;74;21044;-72
2021/12/12 06:20:41;;;;;;;5.72;4.35;;;1.20;99.90;;;;;;1921558;74;21213;-73
2021/12/12 06:23:07;;;;;;;8.55;4.30;;;1.20;99.90;;;;;;1919423;74;21141;-74
2021/12/12 06:25:33;;;;;;;6.87;4.58;;;1.20;99.90;;;;;;1923817;74;21126;-72
2021/12/12 06:28:00;;;;;;;5.80;4.33;;;1.20;99.90;;;;;;1937621;74;21058;-74
2021/12/12 06:30:26;;;;;;;7.83;4.58;;;1.10;99.90;;;;;;1932839;73;21046;-72
2021/12/12 06:32:52;;;;;;;8.20;3.95;;;1.10;99.90;;;;;;1932823;74;21102;-74
2021/12/12 06:35:18;;;;;;;5.00;4.12;;;1.10;99.90;;;;;;1937146;74;21043;-74
2021/12/12 06:37:44;;;;;;;4.33;3.72;;;0.90;99.90;;;;;;1918330;74;21139;-75
2021/12/12 06:40:10;;;;;;;5.80;4.67;;;1.00;99.90;;;;;;1921615;74;21147;-73
2021/12/12 06:42:36;;;;;;;5.28;4.08;;;1.00;99.90;;;;;;1934966;73;21501;-76
2021/12/12 06:45:02;;;;;;;4.67;3.90;;;0.80;99.90;;;;;;1932683;73;21493;-74
2021/12/12 06:47:29;;;;;;;3.98;3.35;;;0.80;99.90;;;;;;1934008;73;21462;-74
2021/12/12 06:49:55;;;;;;;5.37;3.80;;;0.80;99.90;;;;;;1931668;74;21100;-75
2021/12/12 06:52:21;;;;;;;6.30;3.92;;;0.80;99.90;;;;;;1928425;72;21042;-74
2021/12/12 06:54:47;;;;;;;4.00;3.55;;;0.90;99.90;;;;;;1918188;74;21159;-77
2021/12/12 06:57:13;;;;;;;6.50;4.20;;;1.00;99.90;;;;;;1940034;73;21122;-79
2021/12/12 06:59:39;;;;;;;5.35;4.30;;;0.90;99.90;;;;;;1934583;73;21101;-76
2021/12/12 07:02:05;;;;;;;5.40;4.45;;;0.80;99.90;;;;;;1933280;73;21047;-78
2021/12/12 07:04:31;;;;;;;9.38;5.03;;;0.80;99.90;;;;;;1919305;74;21073;-78
2021/12/12 07:07:05;;;;;;;5.58;3.90;;;0.80;99.90;;;;;;1939908;72;21572;-84
2021/12/12 07:09:30;;;;;;;7.42;4.72;;;0.90;99.90;;;;;;1936249;73;21442;-83
2021/12/12 07:11:56;;;;;;;5.87;4.17;;;0.90;99.90;;;;;;1930524;74;21186;-82
2021/12/12 07:14:22;;;;;;;10.85;4.55;;;0.80;99.90;;;;;;1925663;73;21203;-83
2021/12/12 07:16:49;;;;;;;8.13;4.50;;;0.80;99.90;;;;;;1923908;74;21043;-80
2021/12/12 07:19:15;;;;;;;4.45;3.62;;;0.70;99.90;;;;;;1934276;73;21151;-79
2021/12/12 07:21:41;;;;;;;4.08;3.58;;;0.70;99.90;;;;;;1943686;73;21436;-82
2021/12/12 07:24:07;;;;;;;6.20;4.03;;;0.60;99.90;;;;;;1933680;74;21077;-78
2021/12/12 07:26:34;;;;;;;9.78;5.17;;;0.70;99.90;;;;;;1919870;74;21073;-78
2021/12/12 07:29:00;;;;;;;7.72;5.50;;;0.60;99.90;;;;;;1947707;74;21043;-78
2021/12/12 07:31:26;;;;;;;7.65;5.90;;;0.50;99.90;;;;;;1917275;74;21560;-78
2021/12/12 07:33:52;;;;;;;15.58;6.83;;;0.40;99.90;;;;;;1943137;74;21424;-80
2021/12/12 07:36:19;;;;;;;17.57;7.72;;;0.50;99.90;;;;;;1939401;73;21121;-81
2021/12/12 07:38:45;;;;;;;15.80;8.05;;;0.50;99.90;;;;;;1932918;73;21123;-81
2021/12/12 07:41:12;;;;;;;15.30;8.18;;;0.40;99.90;;;;;;1937836;73;21501;-79
2021/12/12 07:43:38;;;;;;;24.37;7.00;;;0.50;99.90;;;;;;1931618;73;21105;-78
2021/12/12 07:46:04;;;;;;;9.23;6.25;;;0.50;99.90;;;;;;1930533;73;21048;-76
2021/12/12 07:48:30;;;;;;;7.55;5.45;;;0.50;99.90;;;;;;1923170;74;21074;-78
2021/12/12 07:50:56;;;;;;;7.62;5.40;;;0.50;99.90;;;;;;1919333;74;21236;-81
2021/12/12 07:53:23;;;;;;;9.05;5.28;;;0.50;99.90;;;;;;1928881;73;21143;-77
2021/12/12 07:55:49;;;;;;;8.73;5.33;;;0.50;99.90;;;;;;1923159;74;21043;-79
2021/12/12 07:58:15;;;;;;;7.55;4.75;;;0.60;99.90;;;;;;1930770;73;21503;-76
2021/12/12 08:00:41;;;;;;;6.42;4.22;;;0.60;99.90;;;;;;1923270;74;21575;-79
2021/12/12 08:03:07;;;;;;;5.70;4.70;;;0.80;99.90;;;;;;1924296;73;21491;-74
2021/12/12 08:05:33;;;;;;;5.80;4.55;;;0.70;99.90;;;;;;1925221;73;21082;-75
2021/12/12 08:07:59;;;;;;;8.15;5.90;;;0.70;99.90;;;;;;1927901;73;21174;-77
2021/12/12 08:10:25;;;;;;;9.23;5.53;;;0.80;99.90;;;;;;1948488;74;21101;-78
2021/12/12 08:12:52;;;;;;;11.30;4.97;;;0.90;99.90;;;;;;1939215;73;21044;-75
2021/12/12 08:15:18;;;;;;;14.98;5.08;;;1.00;99.90;;;;;;1932833;74;21038;-78
2021/12/12 08:17:44;;;;;;;6.28;4.90;;;1.20;99.90;;;;;;1944212;73;21101;-75
2021/12/12 08:20:10;;;;;;;7.40;5.30;;;1.30;99.90;;;;;;1920554;74;21078;-76
2021/12/12 08:22:36;;;;;;;5.22;4.47;;;1.50;99.90;;;;;;1921016;74;21074;-76
2021/12/12 08:25:02;;;;;;;7.90;5.40;;;1.70;99.90;;;;;;1931044;74;21196;-76
2021/12/12 08:27:28;;;;;;;6.78;5.35;;;1.90;99.90;;;;;;1924304;74;21140;-77
2021/12/12 08:29:54;;;;;;;9.48;6.75;;;2.20;99.90;;;;;;1927940;74;21046;-78
2021/12/12 08:32:20;;;;;;;7.60;6.70;;;2.40;99.90;;;;;;1930709;73;21435;-76
2021/12/12 08:34:47;;;;;;;8.33;5.62;;;2.60;99.90;;;;;;1924158;73;21469;-76
2021/12/12 08:37:13;;;;;;;8.33;5.97;;;2.90;99.90;;;;;;1933822;72;21584;-76
2021/12/12 08:39:39;;;;;;;10.35;5.72;;;3.20;99.90;;;;;;1934028;73;21238;-80
2021/12/12 08:42:05;;;;;;;8.65;5.45;;;3.30;99.90;;;;;;1931810;72;21043;-81
2021/12/12 08:44:31;;;;;;;6.55;4.67;;;3.40;99.90;;;;;;1925015;74;21129;-76
2021/12/12 08:46:57;;;;;;;6.95;4.45;;;3.30;99.90;;;;;;1942841;74;21109;-82
2021/12/12 08:49:23;;;;;;;7.03;4.62;;;3.50;99.90;;;;;;1928550;73;21042;-82
2021/12/12 08:51:49;;;;;;;6.12;4.35;;;3.50;99.90;;;;;;1930820;73;21077;-80
2021/12/12 08:54:23;;;;;;;12.70;4.15;;;3.50;99.90;;;;;;1933149;74;21035;-78
2021/12/12 08:56:46;;;;;;;7.33;4.70;;;3.40;99.90;;;;;;1934115;73;21131;-80
2021/12/12 08:59:11;;;;;;;5.42;4.22;;;3.40;99.90;;;;;;1934520;74;21052;-81
2021/12/12 09:01:37;;;;;;;6.15;4.20;;;3.50;99.90;;;;;;1942361;74;21126;-81
2021/12/12 09:04:03;;;;;;;8.88;4.75;;;3.40;99.90;;;;;;1923426;73;21065;-80
2021/12/12 09:06:30;;;;;;;7.80;3.87;;;3.50;99.90;;;;;;1937596;73;21051;-79
2021/12/12 09:08:57;;;;;;;6.60;3.72;;;3.50;99.90;;;;;;1925326;73;21039;-80
2021/12/12 09:11:23;;;;;;;6.37;3.80;;;3.70;99.90;;;;;;1935354;73;21151;-81
2021/12/12 09:13:49;;;;;;;6.83;3.90;;;3.80;99.90;;;;;;1925160;73;21172;-81
2021/12/12 09:16:15;;;;;;;5.80;4.40;;;3.70;99.90;;;;;;1932236;74;21030;-79
2021/12/12 09:18:42;;;;;;;4.65;3.85;;;3.70;99.90;;;;;;1945250;73;21051;-78
2021/12/12 09:21:10;;;;;;;6.75;3.75;;;3.80;99.90;;;;;;1935780;72;21506;-78
2021/12/12 09:23:36;;;;;;;9.35;4.80;;;3.80;99.90;;;;;;1929800;73;21143;-79
2021/12/12 09:26:03;;;;;;;4.55;3.90;;;3.90;99.90;;;;;;1941197;72;21559;-80
2021/12/12 09:28:29;;;;;;;5.83;3.90;;;4.00;99.90;;;;;;1925126;72;21505;-81
2021/12/12 09:30:55;;;;;;;10.08;3.15;;;4.10;99.90;;;;;;1936647;74;21475;-79
2021/12/12 09:33:21;;;;;;;6.22;3.87;;;4.20;99.90;;;;;;1929436;73;21403;-79
2021/12/12 09:35:47;;;;;;;4.42;3.08;;;4.10;99.90;;;;;;1934520;74;21008;-80
2021/12/12 09:38:13;;;;;;;4.40;3.27;;;4.10;99.90;;;;;;1939936;73;21197;-77
2021/12/12 09:40:39;;;;;;;3.27;2.90;;;4.10;99.90;;;;;;1931254;73;21078;-85
2021/12/12 09:43:08;;;;;;;2.62;2.40;;;4.20;99.90;;;;;;1935745;72;21069;-84
2021/12/12 09:45:35;;;;;;;4.72;2.92;;;4.30;99.90;;;;;;1929803;73;21110;-79
2021/12/12 09:48:25;;;;;;;4.90;3.15;;;4.30;99.90;;;;;;1924387;74;21161;-80
2021/12/12 09:53:13;;;;;;;3.12;2.72;;;4.40;99.90;;;;;;1927503;72;21075;-86
2021/12/12 09:55:39;;;;;;;4.20;2.62;;;4.50;99.90;;;;;;1930893;73;21060;-85
2021/12/12 09:58:05;;;;;;;4.22;2.80;;;4.60;99.90;;;;;;1925721;73;21493;-88
2021/12/12 10:00:31;;;;;;;6.87;3.30;;;4.60;99.90;;;;;;1921643;73;21442;-89
2021/12/12 10:02:57;;;;;;;4.85;2.50;;;4.70;99.90;;;;;;1919667;74;21133;-83
2021/12/12 10:05:24;;;;;;;2.77;2.22;;;5.00;99.90;;;;;;1939787;73;21061;-83
2021/12/12 10:07:50;;;;;;;3.22;2.67;;;5.10;99.90;;;;;;1934230;73;21039;-81
2021/12/12 10:10:16;;;;;;;6.05;3.12;;;5.30;99.90;;;;;;1922642;72;21039;-82
2021/12/12 10:12:42;;;;;;;9.13;3.15;;;5.30;99.90;;;;;;1921551;74;21427;-84
2021/12/12 10:15:11;;;;;;;4.17;2.62;;;5.10;99.90;;;;;;1933302;72;21016;-80
2021/12/12 10:17:37;;;;;;;2.65;2.40;;;5.00;99.90;;;;;;1930865;73;21101;-85
2021/12/12 10:20:03;;;;;;;2.42;2.17;;;4.90;99.90;;;;;;1935664;74;21073;-86
2021/12/12 10:22:30;;;;;;;4.22;2.47;;;4.90;99.90;;;;;;1943232;73;21113;-87
2021/12/12 10:25:09;;;;;;;;;;;;;;;;;;;;;
2021/12/12 10:27:38;;;;;;;;;;;;;;;;;;;;;
2021/12/12 10:30:03;;;;;;;2.50;2.20;;;4.90;99.90;;;;;;1920645;73;21230;-91
2021/12/12 10:32:33;;;;;;;5.10;3.00;;;5.20;99.90;;;;;;1929092;73;21124;-86
2021/12/12 10:37:40;;;;;;;11.55;3.12;;;5.40;99.90;;;;;;1883574;73;21035;-88
2021/12/12 10:43:04;;;;;;;;;;;;;;;;;;;;;
2021/12/12 10:45:22;;;;;;;5.35;3.58;;;5.30;99.90;;;;;;1930846;73;21099;-79
2021/12/12 10:47:51;;;;;;;4.85;2.08;;;5.30;99.90;;;;;;1922633;73;21086;-79
2021/12/12 10:50:17;;;;;;;3.65;3.02;;;5.20;99.90;;;;;;1924638;72;21146;-79
2021/12/12 10:52:43;;;;;;;3.15;2.60;;;5.20;99.90;;;;;;1921053;72;21073;-81
2021/12/12 10:55:09;;;;;;;3.75;2.60;;;5.40;99.90;;;;;;1938140;74;21108;-80
2021/12/12 10:57:35;;;;;;;5.30;2.30;;;5.40;99.90;;;;;;1926911;74;21132;-80
2021/12/12 11:00:02;;;;;;;2.62;1.90;;;5.40;99.90;;;;;;1925726;74;21152;-80
2021/12/12 11:02:28;;;;;;;3.55;2.62;;;5.40;99.90;;;;;;1921114;74;21070;-79
2021/12/12 11:04:54;;;;;;;2.20;2.00;;;5.40;99.90;;;;;;1918990;74;21140;-81
2021/12/12 11:07:20;;;;;;;2.30;2.10;;;5.40;99.90;;;;;;1920358;73;21201;-79
2021/12/12 11:09:47;;;;;;;2.72;2.30;;;5.30;99.90;;;;;;1943478;73;21151;-80
2021/12/12 11:12:17;;;;;;;3.25;1.87;;;5.30;99.90;;;;;;1939140;73;21196;-82
2021/12/12 11:14:42;;;;;;;4.37;2.42;;;5.40;99.90;;;;;;1925671;73;21082;-81
2021/12/12 11:17:08;;;;;;;3.08;2.30;;;5.50;99.90;;;;;;1934209;73;21139;-78
2021/12/12 11:19:34;;;;;;;8.25;3.75;;;5.60;99.90;;;;;;1935609;73;21043;-79
2021/12/12 11:22:00;;;;;;;7.47;3.17;;;5.80;99.90;;;;;;1918160;73;21188;-82
2021/12/12 11:24:31;;;;;;;2.12;1.90;;;6.00;99.90;;;;;;1929766;73;21031;-84
2021/12/12 11:26:55;;;;;;;1.90;1.80;;;6.10;99.90;;;;;;1932322;73;21013;-81
2021/12/12 11:29:21;;;;;;;4.20;2.05;;;6.10;99.90;;;;;;1924881;73;21055;-79
2021/12/12 11:31:48;;;;;;;3.20;2.58;;;6.30;99.90;;;;;;1940545;73;21071;-81
2021/12/12 11:34:14;;;;;;;2.37;1.80;;;6.10;99.90;;;;;;1924092;74;21556;-81
2021/12/12 11:36:49;;;;;;;3.50;2.10;;;6.30;99.90;;;;;;1941321;73;21100;-79
2021/12/12 11:39:08;;;;;;;2.02;1.72;;;6.40;99.90;;;;;;1933181;72;21117;-82
2021/12/12 11:41:34;;;;;;;2.60;2.40;;;6.60;99.90;;;;;;1938159;72;21159;-87
2021/12/12 11:44:01;;;;;;;3.42;2.40;;;6.70;99.90;;;;;;1922725;73;21172;-87
2021/12/12 11:46:28;;;;;;;2.33;2.10;;;6.80;99.90;;;;;;1925041;73;20993;-79
2021/12/12 11:48:54;;;;;;;2.05;1.87;;;6.90;99.90;;;;;;1921690;72;21051;-79
2021/12/12 11:51:21;;;;;;;3.37;2.35;;;6.80;99.90;;;;;;1929654;74;21065;-85
2021/12/12 11:53:47;;;;;;;2.25;2.05;;;7.20;99.90;;;;;;1925984;73;21042;-77
2021/12/12 11:56:13;;;;;;;3.50;2.70;;;7.20;99.90;;;;;;1932530;73;21035;-76
2021/12/12 11:58:39;;;;;;;4.62;2.65;;;7.40;99.90;;;;;;1922808;73;21125;-81
2021/12/12 12:01:06;;;;;;;3.65;1.95;;;7.40;99.90;;;;;;1930495;73;21085;-77
2021/12/12 12:03:32;;;;;;;2.08;1.92;;;7.30;99.90;;;;;;1920466;74;21189;-77
2021/12/12 12:05:59;;;;;;;3.77;2.00;;;7.10;99.90;;;;;;1943277;74;21120;-77
2021/12/12 12:08:25;;;;;;;3.90;2.08;;;7.10;99.90;;;;;;1930356;72;21089;-82
2021/12/12 12:10:51;;;;;;;3.90;2.55;;;7.00;99.90;;;;;;1937873;73;21054;-79
2021/12/12 12:13:17;;;;;;;2.75;2.10;;;6.90;99.90;;;;;;1933245;74;21155;-79
2021/12/12 12:15:47;;;;;;;4.65;2.08;;;6.90;99.90;;;;;;1920895;73;21078;-77
2021/12/12 12:18:14;;;;;;;4.20;2.15;;;6.80;99.90;;;;;;1923057;73;21070;-79
2021/12/12 12:20:43;;;;;;;2.85;2.00;;;6.80;99.90;;;;;;1928692;73;21055;-75
2021/12/12 12:23:11;;;;;;;2.70;2.20;;;7.30;99.90;;;;;;1932658;73;21110;-76
2021/12/12 12:28:02;;;;;;;3.35;2.00;;;9.00;99.90;;;;;;1871943;73;21503;-81
2021/12/12 12:30:28;;;;;;;2.75;1.42;;;8.60;99.90;;;;;;1919640;74;21536;-81
2021/12/12 12:32:55;;;;;;;1.90;1.80;;;8.30;99.90;;;;;;1927259;73;21437;-81
2021/12/12 12:35:21;;;;;;;2.27;1.60;;;8.20;99.90;;;;;;1918972;74;21043;-79
2021/12/12 12:37:47;;;;;;;6.33;1.98;;;8.00;99.90;;;;;;1943156;74;21012;-80
2021/12/12 12:40:13;;;;;;;1.65;1.42;;;7.70;99.90;;;;;;1928295;73;21886;-77
2021/12/12 12:42:42;;;;;;;1.62;1.42;;;7.60;99.90;;;;;;1933503;74;21101;-82
2021/12/12 12:45:10;;;;;;;2.17;1.60;;;7.60;99.90;;;;;;1865653;73;21098;-87
2021/12/12 12:47:36;;;;;;;1.82;1.65;;;7.30;99.90;;;;;;1873299;76;21955;-85
2021/12/12 12:50:04;;;;;;;5.40;1.55;;;7.10;99.90;;;;;;1871311;76;21556;-79
2021/12/12 12:52:30;;;;;;;2.42;1.50;;;7.10;99.90;;;;;;1871881;76;21185;-84
2021/12/12 12:54:56;;;;;;;1.75;1.50;;;7.10;99.90;;;;;;1871654;76;21086;-81
2021/12/12 12:57:22;;;;;;;1.82;1.15;;;7.10;99.90;;;;;;1861903;75;21312;-83
2021/12/12 12:59:50;;;;;;;3.62;1.80;;;7.10;99.90;;;;;;1866412;74;21074;-84
2021/12/12 13:02:16;;;;;;;2.08;1.70;;;7.10;99.90;;;;;;1872797;76;21606;-81
2021/12/12 13:04:42;;;;;;;4.95;1.70;;;7.10;99.90;;;;;;1878530;75;21674;-80
2021/12/12 13:07:13;;;;;;;2.20;1.37;;;7.10;99.90;;;;;;1872420;76;21561;-78
2021/12/12 13:09:36;;;;;;;5.75;1.45;;;7.10;99.90;;;;;;1859278;75;21093;-82
2021/12/12 13:12:02;;;;;;;2.20;1.50;;;7.20;99.90;;;;;;1868510;74;21135;-80
2021/12/12 13:14:28;;;;;;;3.45;1.50;;;7.30;99.90;;;;;;1874394;76;21137;-85
2021/12/12 13:16:54;;;;;;;1.25;1.15;;;7.30;99.90;;;;;;1866918;75;21483;-81
2021/12/12 13:19:20;;;;;;;2.15;1.60;;;7.40;99.90;;;;;;1866321;76;21479;-83
2021/12/12 13:21:47;;;;;;;2.58;1.67;;;7.20;99.90;;;;;;1867161;76;21588;-82
2021/12/12 13:24:13;;;;;;;2.58;1.47;;;7.20;99.90;;;;;;1875141;76;21619;-82